createdAt,value
2017-12-08T00:00:30.176Z,6.6
2017-12-08T00:10:45.512Z,6.4
2017-12-08T00:21:01.024Z,6
2017-12-08T00:31:15.609Z,6.2
2017-12-08T00:41:29.409Z,6
2017-12-08T00:51:44.141Z,5.9
2017-12-08T01:01:58.195Z,5.5
2017-12-08T01:12:13.634Z,5.4
2017-12-08T01:22:27.453Z,5.2
2017-12-08T01:32:42.239Z,5.1
2017-12-08T01:42:56.837Z,4.7
2017-12-08T01:53:10.847Z,4.7
2017-12-08T02:03:25.147Z,4.9
2017-12-08T02:13:39.381Z,5
2017-12-08T02:23:53.660Z,5
2017-12-08T02:34:09.036Z,4.8
2017-12-08T02:44:24.407Z,5
2017-12-08T02:54:39.842Z,5
2017-12-08T03:04:54.601Z,5
2017-12-08T03:15:10.163Z,5.1
2017-12-08T03:25:25.380Z,5
2017-12-08T03:35:40.737Z,5
2017-12-08T03:45:54.854Z,5.1
2017-12-08T03:56:09.596Z,5.1
2017-12-08T04:06:23.616Z,5.1
2017-12-08T04:16:37.611Z,5
2017-12-08T04:26:52.136Z,5
2017-12-08T04:37:06.369Z,5
2017-12-08T04:47:21.102Z,4.9
2017-12-08T04:57:36.306Z,4.6
2017-12-08T05:07:51.679Z,4.5
2017-12-08T05:18:05.514Z,4.4
2017-12-08T05:28:20.198Z,4.2
2017-12-08T05:38:34.227Z,4.2
2017-12-08T05:48:47.948Z,4.1
2017-12-08T05:59:02.044Z,3.9
2017-12-08T06:09:16.256Z,3.9
2017-12-08T06:19:30.242Z,3.5
2017-12-08T06:29:44.836Z,3.6
2017-12-08T06:39:59.216Z,3.3
2017-12-08T06:50:14.535Z,3.3
2017-12-08T07:00:29.001Z,3.1
2017-12-08T07:10:44.271Z,3.1
2017-12-08T07:20:58.410Z,2.9
2017-12-08T07:31:12.459Z,2.9
2017-12-08T07:41:27.462Z,3
2017-12-08T07:51:43.049Z,3.1
2017-12-08T08:01:57.092Z,3.3
2017-12-08T08:12:12.448Z,3.2
2017-12-08T08:22:26.409Z,3.1
2017-12-08T08:32:40.799Z,3.8
2017-12-08T08:42:56.226Z,3.9
2017-12-08T08:53:10.382Z,3.8
2017-12-08T09:03:25.489Z,3.7
2017-12-08T09:13:40.646Z,3.9
2017-12-08T09:23:54.555Z,3.9
2017-12-08T09:34:08.687Z,3.7
2017-12-08T09:44:23.227Z,3.5
2017-12-08T09:54:37.790Z,3.5
2017-12-08T10:04:53.098Z,3.5
2017-12-08T10:15:07.669Z,3.6
2017-12-08T10:35:37.105Z,2.7
2017-12-08T10:45:52.218Z,2.8
2017-12-08T10:56:06.858Z,3.1
2017-12-08T11:06:20.720Z,3.2
2017-12-08T11:16:35.407Z,3.2
2017-12-08T11:26:50.170Z,3.3
2017-12-08T11:37:04.380Z,3.4
2017-12-08T11:47:19.998Z,3.4
2017-12-08T11:57:33.702Z,3.5
2017-12-08T12:07:47.854Z,3.9
2017-12-08T12:18:02.544Z,3.6
2017-12-08T12:28:17.308Z,3.2
2017-12-08T12:38:32.489Z,3.2
2017-12-08T12:48:46.365Z,3.1
2017-12-08T12:59:00.077Z,3.5
2017-12-08T13:09:14.910Z,3.5
2017-12-08T13:19:29.168Z,3.4
2017-12-08T13:29:44.745Z,3.5
2017-12-08T13:39:58.566Z,3.5
2017-12-08T13:50:12.470Z,3.5
2017-12-08T14:00:27.815Z,3.5
2017-12-08T14:10:43.360Z,3.3
2017-12-08T14:20:58.031Z,3
2017-12-08T14:31:12.955Z,2.8
2017-12-08T14:41:28.302Z,2.6
2017-12-08T14:51:43.905Z,2.6
2017-12-08T15:01:59.284Z,2.7
2017-12-08T15:12:14.218Z,2.5
2017-12-08T15:22:28.839Z,2.2
2017-12-08T15:32:44.175Z,1.8
2017-12-08T15:42:59.139Z,1.8
2017-12-08T15:53:14.613Z,1.7
2017-12-08T16:03:29.020Z,1.6
2017-12-08T16:13:44.244Z,1.3
2017-12-08T16:23:58.504Z,1.3
2017-12-08T16:34:13.957Z,1.4
2017-12-08T16:44:28.433Z,1.5
2017-12-08T16:54:43.858Z,1.5
2017-12-08T17:04:57.890Z,1.4
2017-12-08T17:15:11.918Z,1.1
2017-12-08T17:25:26.245Z,1.1
2017-12-08T17:35:41.253Z,1
2017-12-08T17:45:54.975Z,1.2
2017-12-08T17:56:09.585Z,1.1
2017-12-08T18:06:23.480Z,1.2
2017-12-08T18:16:38.901Z,1.3
2017-12-08T18:26:53.105Z,1.4
2017-12-08T18:37:08.034Z,1.6
2017-12-08T18:47:22.051Z,1.7
2017-12-08T18:57:36.587Z,1.7
2017-12-08T19:07:50.850Z,2
2017-12-08T19:18:05.080Z,2.1
2017-12-08T19:28:20.679Z,1.6
2017-12-08T19:38:35.376Z,1.2
2017-12-08T19:48:50.368Z,1.1
2017-12-08T19:59:04.663Z,1.2
2017-12-08T20:09:19.330Z,1.1
2017-12-08T20:19:33.527Z,1.1
2017-12-08T20:29:48.564Z,1.1
2017-12-08T20:40:03.464Z,1.1
2017-12-08T20:50:18.057Z,1
2017-12-08T21:00:32.844Z,1.1
2017-12-08T21:10:48.022Z,1.3
2017-12-08T21:21:02.237Z,1.3
2017-12-08T21:31:16.224Z,1.2
2017-12-08T21:41:31.444Z,1.3
2017-12-08T21:51:45.255Z,1.2
2017-12-08T22:01:59.373Z,1.3
2017-12-08T22:12:14.617Z,1.1
2017-12-08T22:22:30.231Z,1.2
2017-12-08T22:32:44.174Z,1.1
2017-12-08T22:42:59.753Z,1
2017-12-08T22:53:14.503Z,1
2017-12-08T23:03:29.722Z,0.9
2017-12-08T23:13:44.745Z,1
